Time;durP1;ratioP1;P1;durP2;ratioP2;P2;SDS_P1;SDS_P2;PMS_P1;PMS_P2;Temp;Humidity;BMP_temperature;BMP_pressure;BME280_temperature;BME280_humidity;BME280_pressure;Samples;Min_cycle;Max_cycle;Signal;HPM_P1;HPM_P2
2023/02/11 00:01:37;;;;;;;51.10;27.80;;;;;;;-9.11;100.00;101717.58;104876;1260;61560;-56
2023/02/11 00:04:06;;;;;;;49.30;26.70;;;;;;;-9.17;100.00;101712.96;105019;1259;74215;-55
2023/02/11 00:06:35;;;;;;;47.80;25.60;;;;;;;-9.21;100.00;101711.67;105071;1259;68680;-55
2023/02/11 00:09:07;;;;;;;49.30;25.70;;;;;;;-9.26;100.00;101705.51;104812;1262;74431;-59
2023/02/11 00:11:36;;;;;;;53.00;25.70;;;;;;;-9.27;100.00;101700.48;104970;1262;62416;-56
2023/02/11 00:14:07;;;;;;;56.90;27.00;;;;;;;-9.27;100.00;101691.56;105492;1259;61772;-57
2023/02/11 00:16:35;;;;;;;54.60;27.00;;;;;;;-9.26;100.00;101680.77;105067;1262;73511;-57
2023/02/11 00:19:05;;;;;;;51.90;27.50;;;;;;;-9.24;100.00;101678.02;105146;1262;67971;-56
2023/02/11 00:21:36;;;;;;;55.70;29.70;;;;;;;-9.22;100.00;101683.90;104903;1262;74258;-56
2023/02/11 00:24:05;;;;;;;56.70;27.70;;;;;;;-9.25;100.00;101681.26;105267;1260;61890;-54
2023/02/11 00:26:34;;;;;;;55.40;25.60;;;;;;;-9.26;100.00;101672.52;105046;1262;60324;-55
2023/02/11 00:29:03;;;;;;;55.70;27.20;;;;;;;-9.26;100.00;101670.66;104828;1259;73146;-55
2023/02/11 00:31:34;;;;;;;53.80;27.10;;;;;;;-9.26;100.00;101672.85;104948;1262;68437;-55
2023/02/11 00:34:05;;;;;;;51.80;26.50;;;;;;;-9.26;100.00;101673.02;105626;1262;74067;-57
2023/02/11 00:36:34;;;;;;;57.50;27.90;;;;;;;-9.29;100.00;101676.76;104766;1264;61421;-56
2023/02/11 00:39:03;;;;;;;59.80;26.20;;;;;;;-9.31;100.00;101675.45;104985;1260;60587;-54
2023/02/11 00:41:34;;;;;;;53.30;26.30;;;;;;;-9.33;100.00;101668.06;105480;1254;74520;-55
2023/02/11 00:44:03;;;;;;;56.80;26.60;;;;;;;-9.35;100.00;101664.73;105642;1258;67239;-56
2023/02/11 00:46:33;;;;;;;61.80;27.30;;;;;;;-9.37;100.00;101663.57;105687;1258;72908;-57
2023/02/11 00:49:02;;;;;;;54.30;27.50;;;;;;;-9.39;100.00;101660.41;105172;1266;61626;-54
2023/02/11 00:51:32;;;;;;;50.50;24.60;;;;;;;-9.41;100.00;101664.14;105532;1257;61881;-54
2023/02/11 00:54:04;;;;;;;57.90;27.00;;;;;;;-9.43;100.00;101664.84;105397;1256;74631;-57
2023/02/11 00:56:33;;;;;;;54.50;25.40;;;;;;;-9.41;100.00;101663.13;105554;1254;68487;-55
2023/02/11 00:59:02;;;;;;;57.20;26.00;;;;;;;-9.41;100.00;101659.61;105677;1258;72178;-54
2023/02/11 01:01:30;;;;;;;50.10;24.70;;;;;;;-9.42;100.00;101662.48;105712;1253;60887;-54
2023/02/11 01:04:00;;;;;;;50.90;26.70;;;;;;;-9.44;100.00;101663.51;105817;1258;60711;-54
2023/02/11 01:06:28;;;;;;;60.60;27.30;;;;;;;-9.45;100.00;101663.52;105415;1259;72899;-56
2023/02/11 01:08:58;;;;;;;54.20;25.00;;;;;;;-9.48;100.00;101649.09;105544;1257;68103;-54
2023/02/11 01:11:27;;;;;;;57.20;26.60;;;;;;;-9.48;100.00;101636.30;105215;1255;73149;-54
2023/02/11 01:13:55;;;;;;;62.40;26.20;;;;;;;-9.48;100.00;101633.62;105537;1260;61091;-54
2023/02/11 01:16:24;;;;;;;55.90;26.40;;;;;;;-9.49;100.00;101628.75;105633;1259;61247;-58
2023/02/11 01:18:54;;;;;;;75.50;33.50;;;;;;;-9.51;100.00;101632.98;105524;1257;73638;-54
2023/02/11 01:21:22;;;;;;;76.40;33.70;;;;;;;-9.56;100.00;101625.48;105449;1257;68625;-54
2023/02/11 01:23:51;;;;;;;74.60;33.40;;;;;;;-9.60;100.00;101627.89;105790;1257;73837;-57
2023/02/11 01:26:20;;;;;;;71.50;32.00;;;;;;;-9.63;100.00;101632.48;105516;1258;62970;-55
2023/02/11 01:28:50;;;;;;;63.80;28.30;;;;;;;-9.64;100.00;101634.16;105406;1257;60875;-54
2023/02/11 01:31:19;;;;;;;62.60;28.10;;;;;;;-9.63;100.00;101638.18;105495;1258;74599;-54
2023/02/11 01:33:48;;;;;;;60.80;27.40;;;;;;;-9.61;100.00;101640.02;105487;1258;68503;-57
2023/02/11 01:36:17;;;;;;;58.00;27.20;;;;;;;-9.58;100.00;101647.89;105329;1258;74226;-56
2023/02/11 01:38:45;;;;;;;53.30;24.20;;;;;;;-9.56;100.00;101636.73;105401;1259;61307;-54
2023/02/11 01:41:14;;;;;;;52.90;24.30;;;;;;;-9.53;100.00;101631.16;105399;1257;62181;-54
2023/02/11 01:43:45;;;;;;;50.30;22.50;;;;;;;-9.52;100.00;101637.02;105573;1259;73891;-55
2023/02/11 01:46:32;;;;;;;49.70;22.50;;;;;;;-9.50;100.00;101638.36;105422;1258;69136;-57
2023/02/11 01:49:15;;;;;;;49.70;22.40;;;;;;;-9.47;100.00;101637.46;105740;1254;74189;-57
2023/02/11 01:51:51;;;;;;;47.20;21.90;;;;;;;-9.45;100.00;101631.05;105763;1258;62779;-57
2023/02/11 01:57:22;;;;;;;44.90;20.40;;;;;;;-9.45;100.00;101635.60;105571;1254;74515;-55
2023/02/11 02:00:12;;;;;;;46.20;20.40;;;;;;;-9.46;100.00;101631.55;105376;1259;68589;-55
2023/02/11 02:02:45;;;;;;;45.60;22.10;;;;;;;-9.43;100.00;101623.61;105378;1258;73034;-55
2023/02/11 02:05:29;;;;;;;53.10;22.50;;;;;;;-9.45;100.00;101629.70;105788;1255;62450;-55
2023/02/11 02:08:17;;;;;;;37.90;19.70;;;;;;;-9.47;100.00;101632.25;105674;1258;61152;-54
2023/02/11 02:10:52;;;;;;;42.50;21.50;;;;;;;-9.50;100.00;101632.46;105767;1254;73758;-55
2023/02/11 02:13:22;;;;;;;41.80;20.50;;;;;;;-9.53;100.00;101635.88;105420;1258;67325;-55
2023/02/11 02:15:52;;;;;;;43.00;22.20;;;;;;;-9.56;100.00;101639.09;105398;1253;74277;-54
2023/02/11 02:19:03;;;;;;;46.90;21.20;;;;;;;-9.58;100.00;101631.90;105722;1258;61730;-56
2023/02/11 02:21:56;;;;;;;43.80;22.40;;;;;;;-9.60;100.00;101632.94;105512;1267;60701;-56
2023/02/11 02:24:25;;;;;;;49.10;22.10;;;;;;;-9.63;100.00;101636.34;105724;1259;74310;-57
2023/02/11 02:26:59;;;;;;;45.50;22.10;;;;;;;-9.66;100.00;101637.73;105860;1258;67360;-56
2023/02/11 02:29:50;;;;;;;45.60;22.80;;;;;;;-9.69;100.00;101644.66;105738;1257;73195;-56
2023/02/11 02:32:37;;;;;;;40.30;21.00;;;;;;;-9.75;100.00;101643.22;105411;1254;61378;-56
2023/02/11 02:35:29;;;;;;;43.90;21.60;;;;;;;-9.80;100.00;101636.73;105368;1254;61564;-56
2023/02/11 02:38:05;;;;;;;53.30;23.20;;;;;;;-9.84;100.00;101638.64;105383;1257;75341;-55
2023/02/11 02:40:49;;;;;;;38.20;19.00;;;;;;;-9.87;100.00;101636.15;105656;1257;66920;-57
2023/02/11 02:43:18;;;;;;;38.70;19.20;;;;;;;-9.91;100.00;101638.72;105155;1258;73969;-54
2023/02/11 02:45:46;;;;;;;44.40;18.90;;;;;;;-9.94;100.00;101638.59;105353;1257;62662;-54
2023/02/11 02:48:29;;;;;;;41.60;18.30;;;;;;;-9.97;100.00;101644.69;105435;1257;60647;-57
2023/02/11 02:51:19;;;;;;;43.80;18.80;;;;;;;-10.01;100.00;101649.77;105655;1257;75694;-54
2023/02/11 02:54:02;;;;;;;40.60;19.60;;;;;;;-10.02;100.00;101645.92;105519;1258;67786;-53
2023/02/11 02:56:43;;;;;;;42.00;18.50;;;;;;;-10.05;100.00;101648.30;105439;1258;74160;-53
2023/02/11 02:59:41;;;;;;;38.60;20.40;;;;;;;-10.08;100.00;101649.35;105462;1254;62566;-54
2023/02/11 03:02:26;;;;;;;42.10;21.20;;;;;;;-10.13;100.00;101645.71;104880;1264;61954;-54
2023/02/11 03:05:05;;;;;;;39.90;21.20;;;;;;;-10.17;100.00;101646.26;105442;1254;75252;-54
2023/02/11 03:07:54;;;;;;;42.60;21.40;;;;;;;-10.20;100.00;101646.63;105142;1260;67754;-53
2023/02/11 03:10:29;;;;;;;42.40;22.60;;;;;;;-10.23;100.00;101640.43;105194;1254;74118;-53
2023/02/11 03:12:57;;;;;;;50.90;24.60;;;;;;;-10.25;100.00;101636.45;105275;1254;61571;-55
2023/02/11 03:15:27;;;;;;;48.20;22.40;;;;;;;-10.26;100.00;101638.66;105355;1258;60818;-54
2023/02/11 03:17:58;;;;;;;50.60;24.20;;;;;;;-10.27;100.00;101634.29;105657;1260;75144;-55
2023/02/11 03:20:26;;;;;;;61.00;28.10;;;;;;;-10.29;100.00;101634.15;105491;1254;68730;-54
2023/02/11 03:23:23;;;;;;;66.30;31.20;;;;;;;-10.29;100.00;101634.84;105259;1260;73786;-54
2023/02/11 03:25:57;;;;;;;63.60;29.90;;;;;;;-10.29;100.00;101634.66;105277;1259;62617;-54
2023/02/11 03:28:38;;;;;;;58.50;26.30;;;;;;;-10.28;100.00;101633.46;105281;1255;61063;-55
2023/02/11 03:31:29;;;;;;;41.60;18.40;;;;;;;-10.28;100.00;101628.25;105162;1254;75530;-56
2023/02/11 03:34:08;;;;;;;32.50;18.00;;;;;;;-10.25;100.00;101627.55;105426;1259;67768;-54
2023/02/11 03:36:46;;;;;;;33.40;16.10;;;;;;;-10.21;100.00;101623.77;105576;1257;73735;-55
2023/02/11 03:39:17;;;;;;;39.00;16.90;;;;;;;-10.18;100.00;101623.41;105081;1254;62849;-57
2023/02/11 03:41:46;;;;;;;29.30;14.60;;;;;;;-10.14;100.00;101623.52;105333;1259;60889;-54
2023/02/11 03:44:15;;;;;;;33.20;16.20;;;;;;;-10.11;100.00;101617.77;105253;1260;75467;-55
2023/02/11 03:46:48;;;;;;;28.60;16.20;;;;;;;-10.08;100.00;101612.01;105800;1255;67524;-54
2023/02/11 03:49:18;;;;;;;31.80;15.70;;;;;;;-10.07;100.00;101610.66;105398;1254;72703;-53
2023/02/11 03:51:48;;;;;;;33.20;16.30;;;;;;;-10.04;100.00;101612.15;105244;1261;61716;-54
2023/02/11 03:54:20;;;;;;;30.40;16.20;;;;;;;-10.03;100.00;101607.61;105410;1254;60148;-54
2023/02/11 03:56:54;;;;;;;36.20;18.70;;;;;;;-10.05;100.00;101602.39;105179;1254;74454;-57
2023/02/11 03:59:22;;;;;;;34.80;18.00;;;;;;;-10.06;100.00;101602.75;105275;1254;68727;-54
2023/02/11 04:01:52;;;;;;;31.50;16.80;;;;;;;-10.07;100.00;101607.65;105717;1254;73356;-56
2023/02/11 04:04:21;;;;;;;40.20;18.50;;;;;;;-10.09;100.00;101604.14;105728;1258;61985;-54
2023/02/11 04:06:50;;;;;;;29.50;14.70;;;;;;;-10.11;100.00;101606.86;105452;1254;60633;-54
2023/02/11 04:09:21;;;;;;;;;;;;;;;-10.13;100.00;101605.02;105427;1257;75650;-54
2023/02/11 04:11:53;;;;;;;;;;;;;;;-10.13;100.00;101600.48;105783;1257;67497;-54
2023/02/11 04:14:21;;;;;;;28.50;15.10;;;;;;;-10.15;100.00;101594.12;105420;1254;73210;-54
2023/02/11 04:16:50;;;;;;;31.90;14.70;;;;;;;-10.15;100.00;101582.36;105456;1254;62501;-54
2023/02/11 04:19:18;;;;;;;30.70;15.00;;;;;;;-10.16;100.00;101578.84;105373;1257;61665;-56
2023/02/11 04:21:47;;;;;;;29.50;14.90;;;;;;;-10.16;100.00;101579.84;105545;1257;75368;-55
2023/02/11 04:24:16;;;;;;;27.90;14.20;;;;;;;-10.17;100.00;101578.34;105518;1258;67596;-56
2023/02/11 04:26:44;;;;;;;30.40;15.30;;;;;;;-10.17;100.00;101585.25;105884;1254;74303;-55
2023/02/11 04:29:13;;;;;;;26.50;14.70;;;;;;;-10.17;100.00;101589.29;105448;1257;61550;-58
2023/02/11 04:31:42;;;;;;;31.00;16.00;;;;;;;-10.18;100.00;101577.36;105572;1257;62180;-56
2023/02/11 04:34:10;;;;;;;28.20;15.40;;;;;;;-10.18;100.00;101582.06;105459;1253;76115;-54
2023/02/11 04:36:39;;;;;;;29.20;15.20;;;;;;;-10.18;100.00;101579.55;105380;1254;67763;-54
2023/02/11 04:39:07;;;;;;;32.00;16.40;;;;;;;-10.19;100.00;101584.59;105442;1257;74478;-54
2023/02/11 04:41:37;;;;;;;29.20;15.40;;;;;;;-10.20;100.00;101586.45;105371;1257;60955;-58
2023/02/11 04:44:06;;;;;;;26.20;13.50;;;;;;;-10.19;100.00;101580.73;105458;1254;60703;-55
2023/02/11 04:46:35;;;;;;;30.50;15.30;;;;;;;-10.18;100.00;101570.30;105398;1255;74029;-54
2023/02/11 04:49:04;;;;;;;31.80;15.30;;;;;;;-10.16;100.00;101566.40;105445;1254;68796;-57
2023/02/11 04:51:34;;;;;;;26.70;14.00;;;;;;;-10.13;100.00;101574.10;105428;1254;74574;-55
2023/02/11 04:54:03;;;;;;;28.60;14.60;;;;;;;-10.10;100.00;101578.60;105388;1257;61591;-55
2023/02/11 04:56:32;;;;;;;31.40;14.90;;;;;;;-10.07;100.00;101578.56;105390;1257;61891;-54
2023/02/11 04:59:01;;;;;;;33.40;14.60;;;;;;;-10.04;100.00;101585.75;105240;1255;75104;-54
2023/02/11 05:01:29;;;;;;;26.90;14.10;;;;;;;-10.00;100.00;101586.55;105372;1257;68101;-55
2023/02/11 05:03:58;;;;;;;28.40;14.80;;;;;;;-9.95;100.00;101590.35;105540;1254;74183;-58
2023/02/11 05:06:27;;;;;;;30.30;15.00;;;;;;;-9.88;100.00;101590.43;105405;1253;63034;-54
2023/02/11 05:08:56;;;;;;;27.60;14.80;;;;;;;-9.79;100.00;101594.67;105455;1257;61988;-54
2023/02/11 05:11:24;;;;;;;35.30;16.60;;;;;;;-9.69;100.00;101594.87;105591;1255;74345;-54
2023/02/11 05:13:53;;;;;;;28.30;14.40;;;;;;;-9.56;100.00;101597.88;105586;1257;66721;-57
2023/02/11 05:16:22;;;;;;;26.40;13.40;;;;;;;-9.41;100.00;101601.54;105269;1258;73919;-54
2023/02/11 05:18:54;;;;;;;27.40;14.80;;;;;;;-9.24;100.00;101605.31;105320;1254;63048;-55
2023/02/11 05:21:22;;;;;;;;;;;;;;;-9.04;100.00;101603.98;105423;1258;60454;-55
2023/02/11 05:23:51;;;;;;;27.50;12.00;;;;;;;-8.82;100.00;101593.02;105440;1257;75656;-57
2023/02/11 05:26:20;;;;;;;27.20;12.70;;;;;;;-8.61;100.00;101592.09;105423;1255;68621;-54
2023/02/11 05:28:48;;;;;;;27.00;14.10;;;;;;;-8.38;100.00;101590.81;105463;1254;74303;-54
2023/02/11 05:31:17;;;;;;;29.60;15.00;;;;;;;-8.15;100.00;101597.26;105146;1253;60787;-54
2023/02/11 05:33:46;;;;;;;30.80;15.40;;;;;;;-7.93;100.00;101594.63;105468;1253;61710;-57
2023/02/11 05:36:15;;;;;;;28.70;14.70;;;;;;;-7.70;100.00;101594.13;105473;1254;75514;-54
2023/02/11 05:38:44;;;;;;;25.60;14.60;;;;;;;-7.44;100.00;101589.66;105396;1254;68024;-56
2023/02/11 05:41:13;;;;;;;28.30;15.60;;;;;;;-7.19;100.00;101589.08;105110;1254;74007;-54
2023/02/11 05:43:41;;;;;;;25.80;14.40;;;;;;;-6.92;100.00;101595.33;105562;1257;60720;-57
2023/02/11 05:46:10;;;;;;;27.50;15.20;;;;;;;-6.59;100.00;101596.17;105420;1254;61756;-54
2023/02/11 05:48:39;;;;;;;28.00;16.20;;;;;;;-6.11;100.00;101591.13;105386;1257;74251;-54
2023/02/11 05:51:07;;;;;;;27.30;15.90;;;;;;;-5.45;100.00;101586.93;105616;1257;67562;-55
2023/02/11 05:53:36;;;;;;;26.50;15.90;;;;;;;-4.71;100.00;101580.94;105469;1255;73118;-57
2023/02/11 05:56:05;;;;;;;26.60;15.60;;;;;;;-4.02;100.00;101583.40;105425;1253;61902;-55
2023/02/11 05:58:34;;;;;;;26.80;14.90;;;;;;;-3.39;100.00;101582.86;105445;1253;61900;-54
2023/02/11 06:01:03;;;;;;;24.90;15.20;;;;;;;-2.76;100.00;101572.98;105513;1254;75401;-57
2023/02/11 06:03:34;;;;;;;25.30;15.20;;;;;;;-2.14;100.00;101564.98;105262;1257;68616;-59
2023/02/11 06:06:03;;;;;;;24.10;14.40;;;;;;;-1.58;100.00;101558.11;105359;1254;74366;-55
2023/02/11 06:08:31;;;;;;;25.90;17.00;;;;;;;-1.09;100.00;101550.13;105346;1254;60648;-56
2023/02/11 06:11:00;;;;;;;24.10;16.40;;;;;;;-0.66;100.00;101547.11;105829;1257;61946;-59
2023/02/11 06:13:32;;;;;;;24.80;16.70;;;;;;;-0.27;100.00;101546.59;105366;1257;75156;-56
2023/02/11 06:16:02;;;;;;;28.70;17.60;;;;;;;0.06;100.00;101545.82;105359;1254;68603;-55
2023/02/11 06:18:32;;;;;;;22.90;15.10;;;;;;;0.36;100.00;101551.38;105427;1257;73116;-57
2023/02/11 06:21:06;;;;;;;21.40;13.90;;;;;;;0.51;100.00;101554.48;105699;1254;60502;-58
2023/02/11 06:23:35;;;;;;;20.00;13.40;;;;;;;0.73;100.00;101556.96;105656;1257;60868;-55
2023/02/11 06:26:06;;;;;;;21.40;13.90;;;;;;;1.07;100.00;101554.70;105409;1254;75419;-58
2023/02/11 06:28:34;;;;;;;21.50;13.50;;;;;;;1.42;100.00;101555.00;105592;1257;67498;-55
2023/02/11 06:31:05;;;;;;;20.40;13.30;;;;;;;1.80;100.00;101548.27;105615;1254;72963;-57
2023/02/11 06:33:34;;;;;;;19.00;13.20;;;;;;;2.20;100.00;101543.89;105897;1253;61281;-55
2023/02/11 06:36:04;;;;;;;22.50;14.80;;;;;;;2.54;100.00;101541.52;105491;1254;61694;-55
2023/02/11 06:38:32;;;;;;;21.50;14.00;;;;;;;2.79;100.00;101538.52;105361;1253;75416;-55
2023/02/11 06:41:01;;;;;;;23.20;14.60;;;;;;;2.96;100.00;101541.67;105631;1253;68550;-58
2023/02/11 06:43:30;;;;;;;21.10;14.40;;;;;;;3.09;100.00;101532.38;105238;1254;73585;-55
2023/02/11 06:45:58;;;;;;;19.80;13.80;;;;;;;3.16;100.00;101530.50;105510;1257;61102;-56
2023/02/11 06:48:27;;;;;;;18.00;13.50;;;;;;;3.26;100.00;101531.77;105330;1257;60692;-55
2023/02/11 06:50:56;;;;;;;22.80;15.00;;;;;;;3.32;100.00;101533.91;105617;1254;76053;-55
2023/02/11 06:53:24;;;;;;;20.30;14.50;;;;;;;3.43;100.00;101531.59;105153;1253;68035;-56
2023/02/11 06:55:53;;;;;;;22.50;15.10;;;;;;;3.68;100.00;101531.23;105447;1253;72615;-56
2023/02/11 06:58:22;;;;;;;17.50;12.90;;;;;;;3.97;100.00;101528.70;105429;1255;60623;-55
2023/02/11 07:00:51;;;;;;;19.30;14.50;;;;;;;4.25;100.00;101523.11;105493;1253;61771;-57
2023/02/11 07:03:19;;;;;;;20.90;14.80;;;;;;;4.51;100.00;101519.48;105444;1253;74347;-58
2023/02/11 07:05:48;;;;;;;24.10;15.20;;;;;;;4.85;100.00;101514.90;105453;1255;68482;-55
2023/02/11 07:08:17;;;;;;;21.50;15.30;;;;;;;5.18;96.38;101513.59;105468;1258;74198;-57
2023/02/11 07:10:46;;;;;;;19.60;14.80;;;;;;;5.43;90.41;101509.80;105430;1257;61703;-56
2023/02/11 07:13:14;;;;;;;21.70;15.30;;;;;;;5.63;86.22;101499.80;105454;1254;61776;-58
2023/02/11 07:15:43;;;;;;;24.00;17.10;;;;;;;5.83;81.88;101500.92;105615;1254;74682;-55
2023/02/11 07:18:13;;;;;;;21.00;16.10;;;;;;;6.02;74.51;101493.73;105757;1254;67812;-57
2023/02/11 07:20:42;;;;;;;21.20;15.30;;;;;;;6.13;68.47;101488.23;105849;1257;74035;-54
2023/02/11 07:23:10;;;;;;;21.40;15.30;;;;;;;6.11;66.38;101482.67;105972;1254;60392;-58
2023/02/11 07:25:39;;;;;;;26.70;20.10;;;;;;;6.17;65.34;101478.22;105618;1257;61085;-54
2023/02/11 07:28:09;;;;;;;22.50;16.60;;;;;;;6.23;62.47;101480.33;105833;1253;75345;-54
2023/02/11 07:30:38;;;;;;;23.30;18.70;;;;;;;6.24;61.37;101478.36;105632;1254;67349;-56
2023/02/11 07:33:06;;;;;;;22.50;16.50;;;;;;;6.31;60.70;101476.77;105832;1257;74243;-57
2023/02/11 07:35:36;;;;;;;19.70;15.10;;;;;;;6.34;58.72;101472.89;105725;1253;61175;-57
2023/02/11 07:38:06;;;;;;;21.80;16.00;;;;;;;6.28;57.51;101472.70;105868;1253;60648;-55
2023/02/11 07:40:35;;;;;;;22.00;15.90;;;;;;;6.20;56.35;101468.80;105675;1253;74370;-54
2023/02/11 07:43:03;;;;;;;22.40;16.10;;;;;;;6.27;57.65;101469.33;105770;1257;66615;-56
2023/02/11 07:45:37;;;;;;;18.80;14.10;;;;;;;6.46;56.70;101465.85;105716;1253;74210;-57
2023/02/11 07:48:06;;;;;;;22.40;15.60;;;;;;;6.56;54.17;101465.55;105843;1255;60592;-57
2023/02/11 07:50:34;;;;;;;22.00;15.80;;;;;;;6.56;53.27;101465.02;105836;1253;61706;-56
2023/02/11 07:53:03;;;;;;;20.40;15.40;;;;;;;6.54;51.98;101461.68;106102;1254;75368;-56
2023/02/11 07:55:32;;;;;;;22.90;16.90;;;;;;;6.51;51.42;101463.52;105750;1257;68147;-57
2023/02/11 07:58:01;;;;;;;22.70;15.60;;;;;;;6.51;51.82;101461.63;105723;1257;73019;-58
2023/02/11 08:00:30;;;;;;;20.20;14.40;;;;;;;6.56;51.48;101457.75;105404;1257;60938;-57
2023/02/11 08:02:58;;;;;;;21.50;15.50;;;;;;;6.52;50.08;101455.15;105274;1253;61848;-58
2023/02/11 08:05:27;;;;;;;17.70;14.20;;;;;;;6.38;50.69;101452.00;105659;1257;75555;-61
2023/02/11 08:07:55;;;;;;;19.70;13.50;;;;;;;6.40;51.51;101450.64;105759;1253;67904;-55
2023/02/11 08:10:25;;;;;;;21.10;15.30;;;;;;;6.52;51.30;101438.75;105758;1253;74481;-56
2023/02/11 08:12:54;;;;;;;19.40;14.60;;;;;;;6.53;50.90;101436.73;105699;1253;61778;-56
2023/02/11 08:15:23;;;;;;;20.10;14.60;;;;;;;6.66;51.52;101433.98;105673;1253;62190;-57
2023/02/11 08:17:52;;;;;;;21.00;16.00;;;;;;;6.86;50.98;101433.15;105682;1254;74855;-57
2023/02/11 08:20:21;;;;;;;22.30;17.50;;;;;;;7.03;49.37;101432.19;105711;1256;67689;-57
2023/02/11 08:22:50;;;;;;;20.50;15.50;;;;;;;7.18;48.72;101427.84;105701;1258;73115;-56
2023/02/11 08:25:19;;;;;;;19.30;15.10;;;;;;;7.33;48.04;101427.26;105982;1253;61804;-57
2023/02/11 08:27:49;;;;;;;19.70;14.80;;;;;;;7.53;47.99;101433.05;105849;1257;61844;-56
2023/02/11 08:30:18;;;;;;;19.30;15.00;;;;;;;7.80;47.08;101434.53;105713;1255;75304;-57
2023/02/11 08:32:46;;;;;;;19.00;14.70;;;;;;;8.00;46.22;101434.45;105643;1257;67430;-56
2023/02/11 08:35:15;;;;;;;19.90;14.70;;;;;;;8.08;44.86;101437.05;105577;1257;72987;-56
2023/02/11 08:37:44;;;;;;;18.50;14.30;;;;;;;8.01;43.93;101434.37;105648;1253;61666;-58
2023/02/11 08:40:13;;;;;;;21.00;15.40;;;;;;;7.96;44.02;101430.61;105559;1253;61939;-57
2023/02/11 08:42:42;;;;;;;20.90;15.30;;;;;;;7.84;43.40;101432.30;105406;1257;74267;-56
2023/02/11 08:45:11;;;;;;;20.00;14.50;;;;;;;7.42;42.76;101432.48;105884;1253;67488;-55
2023/02/11 08:47:40;;;;;;;19.80;13.50;;;;;;;6.81;43.24;101429.96;105444;1257;73195;-56
2023/02/11 08:50:09;;;;;;;19.50;14.70;;;;;;;6.30;44.33;101432.33;105480;1253;61816;-54
2023/02/11 08:52:37;;;;;;;20.10;14.60;;;;;;;5.84;45.86;101433.39;105505;1254;61912;-55
2023/02/11 08:55:06;;;;;;;19.20;13.80;;;;;;;5.56;47.99;101428.97;105579;1253;74240;-54
2023/02/11 08:57:35;;;;;;;21.20;14.20;;;;;;;5.47;50.51;101424.62;105590;1254;68528;-57
2023/02/11 09:00:04;;;;;;;21.00;14.00;;;;;;;5.53;52.63;101418.64;105151;1257;73881;-55
2023/02/11 09:02:33;;;;;;;20.00;13.60;;;;;;;5.68;53.27;101413.34;105618;1254;59892;-55
2023/02/11 09:05:02;;;;;;;19.80;14.00;;;;;;;5.91;53.37;101410.30;106273;1254;60530;-56
2023/02/11 09:07:31;;;;;;;22.60;15.10;;;;;;;6.13;51.20;101406.27;105781;1255;74056;-59
2023/02/11 09:10:00;;;;;;;17.20;12.70;;;;;;;6.27;50.70;101402.00;104979;1258;66954;-56
2023/02/11 09:12:29;;;;;;;20.50;13.80;;;;;;;6.47;50.64;101396.23;105366;1258;73030;-56
2023/02/11 09:14:58;;;;;;;21.20;14.10;;;;;;;6.75;49.46;101394.89;105276;1258;60999;-56
2023/02/11 09:17:28;;;;;;;19.30;13.20;;;;;;;6.90;47.67;101390.61;105926;1254;61893;-58
2023/02/11 09:19:57;;;;;;;20.40;13.10;;;;;;;7.00;47.79;101384.91;105312;1258;75579;-58
2023/02/11 09:22:25;;;;;;;20.50;13.10;;;;;;;7.20;47.19;101381.83;105151;1253;67518;-56
2023/02/11 09:24:55;;;;;;;20.90;14.10;;;;;;;7.32;46.01;101381.31;105485;1256;74534;-56
2023/02/11 09:27:24;;;;;;;20.80;15.40;;;;;;;7.34;44.91;101374.92;105643;1255;61129;-56
2023/02/11 09:29:52;;;;;;;19.80;14.20;;;;;;;7.29;44.43;101371.47;105594;1253;62011;-58
2023/02/11 09:32:21;;;;;;;16.50;11.70;;;;;;;7.31;43.80;101369.28;105360;1253;74375;-57
2023/02/11 09:34:50;;;;;;;18.60;13.00;;;;;;;7.27;43.06;101367.79;105590;1256;68609;-56
2023/02/11 09:37:19;;;;;;;18.20;12.50;;;;;;;7.23;43.15;101367.77;105779;1254;73379;-58
2023/02/11 09:39:47;;;;;;;19.40;13.00;;;;;;;7.24;43.10;101359.02;105715;1257;60789;-56
2023/02/11 09:42:19;;;;;;;19.20;12.90;;;;;;;7.23;43.21;101358.58;105718;1254;60610;-55
2023/02/11 09:44:48;;;;;;;18.30;12.30;;;;;;;7.24;43.57;101356.56;105738;1255;75553;-56
2023/02/11 09:47:33;;;;;;;18.70;12.70;;;;;;;7.33;43.54;101350.27;105542;1255;68724;-55
2023/02/11 09:50:09;;;;;;;18.30;13.10;;;;;;;7.36;43.38;101343.83;105678;1253;74229;-55
2023/02/11 09:52:41;;;;;;;20.60;14.10;;;;;;;7.27;42.91;101334.15;105450;1258;60345;-57
2023/02/11 09:55:14;;;;;;;19.30;12.80;;;;;;;7.07;42.79;101327.42;105865;1253;61680;-56
2023/02/11 09:57:42;;;;;;;19.20;12.20;;;;;;;6.99;43.32;101325.42;105317;1258;75233;-56
2023/02/11 10:00:21;;;;;;;19.50;13.40;;;;;;;6.98;43.63;101319.80;105462;1254;68182;-55
2023/02/11 10:03:13;;;;;;;20.40;14.00;;;;;;;7.03;43.70;101319.02;105387;1253;74733;-54
2023/02/11 10:05:47;;;;;;;;;;;;;;;7.04;43.56;101312.50;105247;1257;60538;-54
2023/02/11 10:08:35;;;;;;;16.50;11.90;;;;;;;6.98;43.95;101308.24;105674;1257;60508;-55
2023/02/11 10:11:40;;;;;;;19.90;12.70;;;;;;;6.99;43.62;101304.52;105911;1257;75319;-55
2023/02/11 10:14:31;;;;;;;18.90;12.70;;;;;;;6.81;43.71;101297.09;105765;1258;67437;-55
2023/02/11 10:17:21;;;;;;;19.80;13.60;;;;;;;6.76;44.12;101295.59;105780;1257;74100;-56
2023/02/11 10:20:09;;;;;;;19.00;12.60;;;;;;;6.73;44.40;101290.84;105310;1257;60532;-55
2023/02/11 10:23:09;;;;;;;18.70;12.50;;;;;;;6.72;45.08;101290.47;105340;1253;61922;-55
2023/02/11 10:25:39;;;;;;;18.60;11.80;;;;;;;6.82;45.59;101294.04;105155;1254;74277;-56
2023/02/11 10:28:12;;;;;;;16.90;11.50;;;;;;;7.02;45.93;101304.36;105451;1255;68921;-55
2023/02/11 10:30:59;;;;;;;19.10;12.10;;;;;;;7.17;45.41;101293.38;105608;1255;74536;-56
2023/02/11 10:33:47;;;;;;;21.90;14.20;;;;;;;7.25;44.79;101290.05;105726;1259;61166;-55
2023/02/11 10:36:17;;;;;;;18.80;12.50;;;;;;;7.23;44.20;101287.49;105535;1258;60888;-57
2023/02/11 10:38:46;;;;;;;21.90;13.40;;;;;;;7.13;43.77;101284.29;105478;1253;74323;-55
2023/02/11 10:41:24;;;;;;;20.00;13.60;;;;;;;7.00;44.32;101281.94;105754;1253;68507;-58
2023/02/11 10:43:52;;;;;;;20.30;13.70;;;;;;;6.93;44.74;101281.84;105300;1253;73551;-58
2023/02/11 10:46:23;;;;;;;20.80;13.70;;;;;;;6.90;45.40;101285.95;105313;1254;60625;-55
2023/02/11 10:48:52;;;;;;;23.10;14.80;;;;;;;6.98;45.61;101286.23;105279;1253;61704;-57
2023/02/11 10:51:22;;;;;;;19.90;12.70;;;;;;;7.08;45.21;101283.14;105661;1254;75341;-55
2023/02/11 10:54:02;;;;;;;19.10;13.90;;;;;;;7.09;44.81;101277.55;105440;1258;68592;-55
2023/02/11 10:56:34;;;;;;;19.10;13.20;;;;;;;7.01;44.84;101278.05;105451;1253;74197;-54
2023/02/11 10:59:32;;;;;;;19.00;13.30;;;;;;;6.85;45.26;101277.39;105567;1258;60487;-56
2023/02/11 11:02:03;;;;;;;21.60;13.20;;;;;;;6.69;45.55;101272.92;105430;1257;60362;-53
2023/02/11 11:04:39;;;;;;;21.30;15.20;;;;;;;6.56;46.43;101266.77;105311;1258;75404;-57
2023/02/11 11:07:28;;;;;;;22.00;15.00;;;;;;;6.42;46.88;101261.88;105419;1255;68382;-57
2023/02/11 11:10:04;;;;;;;20.90;14.10;;;;;;;6.22;47.77;101252.10;105434;1256;74273;-55
2023/02/11 11:12:38;;;;;;;22.00;14.30;;;;;;;5.99;48.23;101252.27;105150;1253;61326;-55
2023/02/11 11:15:09;;;;;;;23.20;14.20;;;;;;;5.60;49.30;101254.31;105236;1257;61207;-57
2023/02/11 11:17:43;;;;;;;21.30;13.10;;;;;;;5.12;51.26;101250.59;105302;1257;75641;-54
2023/02/11 11:20:21;;;;;;;22.60;14.50;;;;;;;4.76;54.89;101244.19;105432;1257;68762;-57
2023/02/11 11:22:51;;;;;;;21.40;14.40;;;;;;;4.50;59.27;101241.71;105264;1257;74163;-57
2023/02/11 11:25:27;;;;;;;20.90;14.40;;;;;;;4.35;63.22;101240.45;105673;1253;60454;-56